createdAt,value
2023-12-23T00:02:09.689Z,99.90
2023-12-23T00:04:37.019Z,99.90
2023-12-23T00:07:07.124Z,99.90
2023-12-23T00:09:34.244Z,99.90
2023-12-23T00:12:01.715Z,99.90
2023-12-23T00:14:28.844Z,99.90
2023-12-23T00:16:56.097Z,99.90
2023-12-23T00:19:23.642Z,99.90
2023-12-23T00:21:51.047Z,99.90
2023-12-23T00:24:18.252Z,99.90
2023-12-23T00:26:45.435Z,99.90
2023-12-23T00:29:12.703Z,99.90
2023-12-23T00:31:39.940Z,99.90
2023-12-23T00:34:07.086Z,99.90
2023-12-23T00:36:34.309Z,99.90
2023-12-23T00:39:01.667Z,99.90
2023-12-23T00:41:28.789Z,99.90
2023-12-23T00:43:56.066Z,99.90
2023-12-23T00:46:23.224Z,99.90
2023-12-23T00:48:50.471Z,99.90
2023-12-23T00:51:17.689Z,99.90
2023-12-23T00:53:48.163Z,99.90
2023-12-23T00:56:21.504Z,99.90
2023-12-23T00:58:49.974Z,99.90
2023-12-23T01:01:17.169Z,99.90
2023-12-23T01:03:47.206Z,99.90
2023-12-23T01:06:14.504Z,99.90
2023-12-23T01:08:41.638Z,99.90
2023-12-23T01:11:11.089Z,99.90
2023-12-23T01:13:38.309Z,99.90
2023-12-23T01:16:05.816Z,99.90
2023-12-23T01:18:33.158Z,99.90
2023-12-23T01:21:00.402Z,99.90
2023-12-23T01:23:28.633Z,99.90
2023-12-23T01:25:55.870Z,99.90
2023-12-23T01:28:25.852Z,99.90
2023-12-23T01:30:53.447Z,99.90
2023-12-23T01:33:20.675Z,99.90
2023-12-23T01:35:47.930Z,99.90
2023-12-23T01:38:15.260Z,99.90
2023-12-23T01:40:42.478Z,99.90
2023-12-23T01:43:09.808Z,99.90
2023-12-23T01:45:37.043Z,99.90
2023-12-23T01:48:07.269Z,99.90
2023-12-23T01:50:34.514Z,99.90
2023-12-23T01:53:02.913Z,99.90
2023-12-23T01:55:32.828Z,99.90
2023-12-23T01:58:00.192Z,99.90
2023-12-23T02:00:27.716Z,99.90
2023-12-23T02:02:56.093Z,99.90
2023-12-23T02:05:23.531Z,99.90
2023-12-23T02:07:51.082Z,99.90
2023-12-23T02:10:18.631Z,99.90
2023-12-23T02:13:27.060Z,99.90
2023-12-23T02:15:54.983Z,99.90
2023-12-23T02:18:24.766Z,99.90
2023-12-23T02:20:54.077Z,99.90
2023-12-23T02:23:21.487Z,99.90
2023-12-23T02:25:57.523Z,99.90
2023-12-23T02:28:25.808Z,99.90
2023-12-23T02:30:55.110Z,99.90
2023-12-23T02:33:22.846Z,99.90
2023-12-23T02:35:54.510Z,99.90
2023-12-23T02:38:23.065Z,99.90
2023-12-23T02:40:50.517Z,99.90
2023-12-23T02:43:18.152Z,99.90
2023-12-23T02:45:45.405Z,99.90
2023-12-23T02:48:12.703Z,99.90
2023-12-23T02:50:40.024Z,99.90
2023-12-23T02:53:09.960Z,99.90
2023-12-23T02:55:40.270Z,99.90
2023-12-23T02:58:07.464Z,99.90
2023-12-23T03:00:34.572Z,99.90
2023-12-23T03:03:01.794Z,99.90
2023-12-23T03:05:29.169Z,99.90
2023-12-23T03:07:56.577Z,99.90
2023-12-23T03:10:25.236Z,99.90
2023-12-23T03:12:52.677Z,99.90
2023-12-23T03:15:20.464Z,99.90
2023-12-23T03:17:48.039Z,99.90
2023-12-23T03:20:15.551Z,99.90
2023-12-23T03:22:42.816Z,99.90
2023-12-23T03:25:11.481Z,99.90
2023-12-23T03:27:38.638Z,99.90
2023-12-23T03:30:06.368Z,99.90
2023-12-23T03:32:33.551Z,99.90
2023-12-23T03:35:00.846Z,99.90
2023-12-23T03:37:28.085Z,99.90
2023-12-23T03:39:55.340Z,99.90
2023-12-23T03:42:22.481Z,99.90
2023-12-23T03:44:49.898Z,99.90
2023-12-23T03:47:17.297Z,99.90
2023-12-23T03:49:44.500Z,99.90
2023-12-23T03:52:11.713Z,99.90
2023-12-23T03:54:38.825Z,99.90
2023-12-23T03:57:05.989Z,99.90
2023-12-23T03:59:33.236Z,99.90
2023-12-23T04:02:00.575Z,99.90
2023-12-23T04:04:27.867Z,99.90
2023-12-23T04:06:55.131Z,99.90
2023-12-23T04:09:23.388Z,99.90
2023-12-23T04:11:50.787Z,99.90
2023-12-23T04:14:18.245Z,99.90
2023-12-23T04:16:46.206Z,99.90
2023-12-23T04:19:13.460Z,99.90
2023-12-23T04:21:41.040Z,99.90
2023-12-23T04:24:08.342Z,99.90
2023-12-23T04:26:36.404Z,99.90
2023-12-23T04:29:03.666Z,99.90
2023-12-23T04:31:31.010Z,99.90
2023-12-23T04:33:58.751Z,99.90
2023-12-23T04:36:26.430Z,99.90
2023-12-23T04:38:53.565Z,99.90
2023-12-23T04:41:20.890Z,99.90
2023-12-23T04:43:48.095Z,99.90
2023-12-23T04:46:15.473Z,99.90
2023-12-23T04:48:42.616Z,99.90
2023-12-23T04:51:09.892Z,99.90
2023-12-23T04:53:36.985Z,99.90
2023-12-23T04:56:04.367Z,99.90
2023-12-23T04:58:31.524Z,99.90
2023-12-23T05:00:58.809Z,99.90
2023-12-23T05:03:26.174Z,99.90
2023-12-23T05:05:53.492Z,99.90
2023-12-23T05:08:21.010Z,99.90
2023-12-23T05:10:48.295Z,99.90
2023-12-23T05:13:16.174Z,99.90
2023-12-23T05:15:43.327Z,99.90
2023-12-23T05:18:10.588Z,99.90
2023-12-23T05:20:37.856Z,99.90
2023-12-23T05:23:05.183Z,99.90
2023-12-23T05:25:32.421Z,99.90
2023-12-23T05:27:59.535Z,99.90
2023-12-23T05:30:26.711Z,99.90
2023-12-23T05:32:54.240Z,99.90
2023-12-23T05:35:21.711Z,99.90
2023-12-23T05:37:49.365Z,99.90
2023-12-23T05:40:16.626Z,99.90
2023-12-23T05:42:44.102Z,99.90
2023-12-23T05:45:11.878Z,99.90
2023-12-23T05:47:39.481Z,99.90
2023-12-23T05:50:08.440Z,99.90
2023-12-23T05:52:35.606Z,99.90
2023-12-23T05:55:02.802Z,99.90
2023-12-23T05:57:29.971Z,99.90
2023-12-23T05:59:57.118Z,99.90
2023-12-23T06:02:24.471Z,99.90
2023-12-23T06:04:51.669Z,99.90
2023-12-23T06:07:20.846Z,99.90
2023-12-23T06:09:47.996Z,99.90
2023-12-23T06:12:15.120Z,99.90
2023-12-23T06:14:43.061Z,99.90
2023-12-23T06:17:10.418Z,99.90
2023-12-23T06:19:37.659Z,99.90
2023-12-23T06:22:04.956Z,99.90
2023-12-23T06:24:32.062Z,99.90
2023-12-23T06:26:59.196Z,99.90
2023-12-23T06:29:26.367Z,99.90
2023-12-23T06:31:53.530Z,99.90
2023-12-23T06:34:20.687Z,99.90
2023-12-23T06:36:48.142Z,99.90
2023-12-23T06:39:15.319Z,99.90
2023-12-23T06:41:44.375Z,99.90
2023-12-23T06:44:13.058Z,99.90
2023-12-23T06:46:40.280Z,99.90
2023-12-23T06:49:07.486Z,99.90
2023-12-23T06:51:34.675Z,99.90
2023-12-23T06:54:01.873Z,99.90
2023-12-23T06:56:28.986Z,99.90
2023-12-23T06:58:56.213Z,99.90
2023-12-23T07:01:23.541Z,99.90
2023-12-23T07:03:50.666Z,99.90
2023-12-23T07:06:17.967Z,99.90
2023-12-23T07:08:45.127Z,99.90
2023-12-23T07:11:12.446Z,99.90
2023-12-23T07:13:39.701Z,99.90
2023-12-23T07:16:07.425Z,99.90
2023-12-23T07:18:34.590Z,99.90
2023-12-23T07:21:02.065Z,99.90
2023-12-23T07:23:29.446Z,99.90
2023-12-23T07:25:56.729Z,99.90
2023-12-23T07:28:24.544Z,99.90
2023-12-23T07:30:51.905Z,99.90
2023-12-23T07:33:19.233Z,99.90
2023-12-23T07:35:46.592Z,99.90
2023-12-23T07:38:14.445Z,99.90
2023-12-23T07:40:41.809Z,99.90
2023-12-23T07:43:09.104Z,99.90
2023-12-23T07:45:36.707Z,99.90
2023-12-23T07:48:04.366Z,99.90
2023-12-23T07:50:31.736Z,99.90
2023-12-23T07:52:59.064Z,99.90
2023-12-23T07:55:27.824Z,99.90
2023-12-23T07:57:55.085Z,99.90
2023-12-23T08:00:22.491Z,99.90
2023-12-23T08:02:49.861Z,99.90
2023-12-23T08:05:17.599Z,99.90
2023-12-23T08:07:45.214Z,99.90
2023-12-23T08:10:12.535Z,99.90
2023-12-23T08:12:39.697Z,99.90
2023-12-23T08:15:07.480Z,99.90
2023-12-23T08:17:34.682Z,99.90
2023-12-23T08:20:02.133Z,99.90
2023-12-23T08:22:29.524Z,99.90
2023-12-23T08:24:56.800Z,99.90
2023-12-23T08:27:23.929Z,99.90
2023-12-23T08:29:51.058Z,99.60
2023-12-23T08:32:18.237Z,99.30
2023-12-23T08:34:48.654Z,99.20
2023-12-23T08:37:15.916Z,99.60
2023-12-23T08:39:43.090Z,99.10
2023-12-23T08:42:10.224Z,98.70
2023-12-23T08:44:37.329Z,98.80
2023-12-23T08:47:04.593Z,98.70
2023-12-23T08:49:31.990Z,98.20
2023-12-23T08:51:59.246Z,97.60
2023-12-23T08:54:26.428Z,97.40
2023-12-23T08:56:53.702Z,96.70
2023-12-23T08:59:20.945Z,97.00
2023-12-23T09:01:48.782Z,96.60
2023-12-23T09:04:15.985Z,96.90
2023-12-23T09:06:43.098Z,95.80
2023-12-23T09:09:10.514Z,95.40
2023-12-23T09:11:45.021Z,95.40
2023-12-23T09:14:12.853Z,95.10
2023-12-23T09:16:40.240Z,94.10
2023-12-23T09:19:08.357Z,94.10
2023-12-23T09:21:35.655Z,93.70
2023-12-23T09:24:02.790Z,93.40
2023-12-23T09:26:29.991Z,93.60
2023-12-23T09:28:57.137Z,93.00
2023-12-23T09:31:24.392Z,93.00
2023-12-23T09:33:51.754Z,92.80
2023-12-23T09:36:19.223Z,92.40
2023-12-23T09:38:46.403Z,91.20
2023-12-23T09:41:13.762Z,90.30
2023-12-23T09:43:40.916Z,91.10
2023-12-23T09:46:09.914Z,90.90
2023-12-23T09:48:37.281Z,88.80
2023-12-23T09:51:04.804Z,88.70
2023-12-23T09:53:38.430Z,89.00
2023-12-23T09:56:06.121Z,87.90
2023-12-23T09:58:33.381Z,86.80
2023-12-23T10:01:00.639Z,87.20
2023-12-23T10:03:27.817Z,85.40
2023-12-23T10:05:55.995Z,84.90
2023-12-23T10:08:23.335Z,85.40
2023-12-23T10:10:50.822Z,85.10
2023-12-23T10:13:19.087Z,84.30
2023-12-23T10:15:46.949Z,84.10
2023-12-23T10:18:14.734Z,82.30
2023-12-23T10:20:44.801Z,80.90
2023-12-23T10:23:12.079Z,80.30
2023-12-23T10:25:40.257Z,80.20
2023-12-23T10:28:10.562Z,79.90
2023-12-23T10:30:43.381Z,79.80
2023-12-23T10:33:15.516Z,80.50
2023-12-23T10:35:47.894Z,80.10
2023-12-23T10:38:23.732Z,79.30
2023-12-23T10:41:14.658Z,78.20
2023-12-23T10:43:42.636Z,78.20
2023-12-23T10:46:10.221Z,79.00
2023-12-23T10:48:39.515Z,79.10
2023-12-23T10:51:07.222Z,78.70
2023-12-23T10:53:35.013Z,78.40
2023-12-23T10:56:03.538Z,79.10
2023-12-23T10:58:32.666Z,78.80
2023-12-23T11:01:00.755Z,78.20
2023-12-23T11:03:31.119Z,77.70
2023-12-23T11:05:59.053Z,76.20
2023-12-23T11:08:26.987Z,76.10
2023-12-23T11:10:54.708Z,76.70
2023-12-23T11:13:22.323Z,77.00
2023-12-23T11:15:49.867Z,76.60
2023-12-23T11:18:17.282Z,74.70
2023-12-23T11:20:48.483Z,77.10
2023-12-23T11:23:35.663Z,73.20
2023-12-23T11:26:04.268Z,75.00
2023-12-23T11:28:38.236Z,74.50
2023-12-23T11:31:05.943Z,75.70
2023-12-23T11:33:36.522Z,74.10
2023-12-23T11:36:04.113Z,72.70
2023-12-23T11:38:47.647Z,73.10
2023-12-23T11:41:15.429Z,73.60
2023-12-23T11:43:46.784Z,74.80
2023-12-23T11:46:15.060Z,75.10
2023-12-23T11:48:42.607Z,77.10
2023-12-23T11:51:12.056Z,76.00
2023-12-23T11:53:40.849Z,75.90
2023-12-23T11:56:08.724Z,75.80
2023-12-23T11:58:36.690Z,75.80
2023-12-23T12:01:04.308Z,75.80
2023-12-23T12:03:31.521Z,74.00
2023-12-23T12:06:00.105Z,74.20
2023-12-23T12:08:28.021Z,75.10
2023-12-23T12:11:01.888Z,74.70
2023-12-23T12:13:38.042Z,74.00
2023-12-23T12:16:06.222Z,73.90
2023-12-23T12:18:33.462Z,75.10
2023-12-23T12:21:23.444Z,73.30
2023-12-23T12:23:51.367Z,73.80
2023-12-23T12:26:20.439Z,73.50
2023-12-23T12:28:47.984Z,73.40
2023-12-23T12:31:15.889Z,73.60
2023-12-23T12:33:43.997Z,73.70
2023-12-23T12:36:15.407Z,74.10
2023-12-23T12:38:44.575Z,76.10
2023-12-23T12:41:13.875Z,75.60
2023-12-23T12:43:45.271Z,74.70
2023-12-23T12:46:18.331Z,73.90
2023-12-23T12:48:47.566Z,75.00
2023-12-23T12:51:17.193Z,75.10
2023-12-23T12:53:48.433Z,75.20
2023-12-23T12:56:22.773Z,74.80
2023-12-23T12:58:52.323Z,73.20
2023-12-23T13:01:20.290Z,71.60
2023-12-23T13:03:47.553Z,72.40
2023-12-23T13:06:15.372Z,72.20
2023-12-23T13:08:42.461Z,71.90
2023-12-23T13:11:09.702Z,70.60
2023-12-23T13:13:37.001Z,71.30
2023-12-23T13:16:06.158Z,71.90
2023-12-23T13:18:39.350Z,72.50
2023-12-23T13:21:14.130Z,72.50
2023-12-23T13:23:41.284Z,72.40
2023-12-23T13:26:08.515Z,72.60
2023-12-23T13:28:35.695Z,72.70
2023-12-23T13:31:02.937Z,71.90
2023-12-23T13:33:30.221Z,71.30
2023-12-23T13:35:58.036Z,72.70
2023-12-23T13:38:26.582Z,71.40
2023-12-23T13:40:56.104Z,72.20
2023-12-23T13:43:23.750Z,71.80
2023-12-23T13:45:50.958Z,71.70
2023-12-23T13:48:18.304Z,73.00
2023-12-23T13:50:45.612Z,73.30
2023-12-23T13:55:41.613Z,72.80
2023-12-23T13:58:12.115Z,73.80
2023-12-23T14:00:39.349Z,73.50
2023-12-23T14:03:06.950Z,73.30
2023-12-23T14:05:34.318Z,74.20
2023-12-23T14:08:01.657Z,74.20
2023-12-23T14:10:28.851Z,74.30
2023-12-23T14:12:55.992Z,73.90
2023-12-23T14:15:23.224Z,73.40
2023-12-23T14:17:50.333Z,74.60
2023-12-23T14:20:17.598Z,74.30
2023-12-23T14:22:44.757Z,75.50
2023-12-23T14:25:12.069Z,74.60
2023-12-23T14:27:40.215Z,74.30
2023-12-23T14:30:07.913Z,75.30
2023-12-23T14:32:35.144Z,76.10
2023-12-23T14:35:02.434Z,76.40
2023-12-23T14:37:32.898Z,75.90
2023-12-23T14:40:07.547Z,74.40
2023-12-23T14:42:34.650Z,74.00
2023-12-23T14:45:03.363Z,74.20
2023-12-23T14:47:30.884Z,74.00
2023-12-23T14:49:58.178Z,74.50
2023-12-23T14:52:25.370Z,74.90
2023-12-23T14:54:52.705Z,73.90
2023-12-23T14:57:19.824Z,74.30
2023-12-23T14:59:46.952Z,74.50
2023-12-23T15:02:17.527Z,74.00
2023-12-23T15:04:44.774Z,74.50
2023-12-23T15:07:11.975Z,75.70
2023-12-23T15:09:39.498Z,75.30
2023-12-23T15:12:06.863Z,76.20
2023-12-23T15:14:34.548Z,76.20
2023-12-23T15:17:01.735Z,76.60
2023-12-23T15:19:28.883Z,77.10
2023-12-23T15:21:57.032Z,77.60
2023-12-23T15:24:25.145Z,77.20
2023-12-23T15:26:52.303Z,75.40
2023-12-23T15:29:19.429Z,71.30
2023-12-23T15:31:46.665Z,65.60
2023-12-23T15:34:14.082Z,63.80
2023-12-23T15:36:41.258Z,64.50
2023-12-23T15:39:08.634Z,68.80
2023-12-23T15:41:36.369Z,70.30
2023-12-23T15:44:03.494Z,71.40
2023-12-23T15:46:30.939Z,74.00
2023-12-23T15:48:58.479Z,75.60
2023-12-23T15:51:25.808Z,77.20
2023-12-23T15:53:53.072Z,78.50
2023-12-23T15:56:20.557Z,79.80
2023-12-23T15:58:47.992Z,81.80
2023-12-23T16:01:15.430Z,82.10
2023-12-23T16:03:42.840Z,84.20
2023-12-23T16:06:17.659Z,84.60
2023-12-23T16:08:45.421Z,86.10
2023-12-23T16:11:12.754Z,87.30
2023-12-23T16:13:42.153Z,88.30
2023-12-23T16:16:09.290Z,89.00
2023-12-23T16:18:36.607Z,89.40
2023-12-23T16:21:03.945Z,89.20
2023-12-23T16:23:31.315Z,89.60
2023-12-23T16:26:00.365Z,90.20
2023-12-23T16:28:29.355Z,90.30
2023-12-23T16:30:56.714Z,91.00
2023-12-23T16:33:23.951Z,91.40
2023-12-23T16:35:53.898Z,91.40
2023-12-23T16:38:21.049Z,91.80
2023-12-23T16:40:48.249Z,92.30
2023-12-23T16:43:15.450Z,92.10
2023-12-23T16:45:42.563Z,92.70
2023-12-23T16:48:10.091Z,93.20
2023-12-23T16:50:37.437Z,93.40
2023-12-23T16:53:04.877Z,93.50
2023-12-23T16:55:32.012Z,94.30
2023-12-23T16:58:01.990Z,94.90
2023-12-23T17:00:29.460Z,94.80
2023-12-23T17:02:56.612Z,95.00
2023-12-23T17:05:23.920Z,95.40
2023-12-23T17:07:52.388Z,96.00
2023-12-23T17:10:19.814Z,96.40
2023-12-23T17:12:47.791Z,96.80
2023-12-23T17:15:15.002Z,97.30
2023-12-23T17:17:42.377Z,97.90
2023-12-23T17:20:11.098Z,97.90
2023-12-23T17:22:38.259Z,98.10
2023-12-23T17:25:05.750Z,98.20
2023-12-23T17:27:32.912Z,98.10
2023-12-23T17:30:01.445Z,98.50
2023-12-23T17:32:28.826Z,98.90
2023-12-23T17:34:56.445Z,99.30
2023-12-23T17:37:23.785Z,99.20
2023-12-23T17:39:51.038Z,99.20
2023-12-23T17:42:18.604Z,99.60
2023-12-23T17:44:45.679Z,99.50
2023-12-23T17:47:12.885Z,99.80
2023-12-23T17:49:40.017Z,99.90
2023-12-23T17:52:07.358Z,99.90
2023-12-23T17:54:34.416Z,99.90
2023-12-23T17:57:01.562Z,99.90
2023-12-23T17:59:29.242Z,99.90
2023-12-23T18:01:56.544Z,99.90
2023-12-23T18:04:23.798Z,99.90
2023-12-23T18:06:50.963Z,99.90
2023-12-23T18:09:18.326Z,99.90
2023-12-23T18:11:45.555Z,99.90
2023-12-23T18:14:12.792Z,99.90
2023-12-23T18:16:41.079Z,99.90
2023-12-23T18:19:08.441Z,99.90
2023-12-23T18:21:35.628Z,99.90
2023-12-23T18:24:05.594Z,99.90
2023-12-23T18:26:33.045Z,99.90
2023-12-23T18:29:00.272Z,99.90
2023-12-23T18:31:27.417Z,99.90
2023-12-23T18:33:55.621Z,99.90
2023-12-23T18:36:22.919Z,99.90
2023-12-23T18:38:50.070Z,99.90
2023-12-23T18:41:17.271Z,99.90
2023-12-23T18:43:44.449Z,99.90
2023-12-23T18:46:13.351Z,99.90
2023-12-23T18:48:41.659Z,99.90
2023-12-23T18:51:10.435Z,99.90
2023-12-23T18:53:38.028Z,99.90
2023-12-23T18:56:05.592Z,99.90
2023-12-23T18:58:34.302Z,99.90
2023-12-23T19:01:03.029Z,99.90
2023-12-23T19:03:30.173Z,99.90
2023-12-23T19:06:01.167Z,99.90
2023-12-23T19:08:28.848Z,99.90
2023-12-23T19:10:58.409Z,99.90
2023-12-23T19:13:27.667Z,99.90
2023-12-23T19:15:55.104Z,99.90
2023-12-23T19:18:22.441Z,99.90
2023-12-23T19:20:49.661Z,99.90
2023-12-23T19:23:17.041Z,99.90
2023-12-23T19:25:46.025Z,99.90
2023-12-23T19:28:13.216Z,99.90
2023-12-23T19:30:40.379Z,99.90
2023-12-23T19:33:08.183Z,99.90
2023-12-23T19:35:36.103Z,99.90
2023-12-23T19:38:04.034Z,99.90
2023-12-23T19:40:31.235Z,99.90
2023-12-23T19:42:58.437Z,99.90
2023-12-23T19:45:25.505Z,99.90
2023-12-23T19:47:52.849Z,99.90
2023-12-23T19:50:20.540Z,99.90
2023-12-23T19:52:47.732Z,99.90
2023-12-23T19:55:14.848Z,99.90
2023-12-23T19:57:41.970Z,99.90
2023-12-23T20:00:10.963Z,99.90
2023-12-23T20:02:38.201Z,99.90
2023-12-23T20:05:05.819Z,99.90
2023-12-23T20:07:33.122Z,99.90
2023-12-23T20:10:00.373Z,99.90
2023-12-23T20:12:27.492Z,99.90
2023-12-23T20:14:54.794Z,99.90
2023-12-23T20:17:22.132Z,99.90
2023-12-23T20:19:49.332Z,99.90
2023-12-23T20:22:16.378Z,99.90
2023-12-23T20:24:43.656Z,99.90
2023-12-23T20:27:10.868Z,99.90
2023-12-23T20:29:38.024Z,99.90
2023-12-23T20:32:06.300Z,99.90
2023-12-23T20:34:34.102Z,99.90
2023-12-23T20:37:04.173Z,99.90
2023-12-23T20:39:32.938Z,99.90
2023-12-23T20:42:01.718Z,99.90
2023-12-23T20:44:29.140Z,99.90
2023-12-23T20:46:58.469Z,99.90
2023-12-23T20:49:25.975Z,99.90
2023-12-23T20:51:53.292Z,99.90
2023-12-23T20:54:21.260Z,99.90
2023-12-23T20:56:48.395Z,99.90
2023-12-23T20:59:15.741Z,99.90
2023-12-23T21:01:43.076Z,99.90
2023-12-23T21:04:10.189Z,99.90
2023-12-23T21:06:37.610Z,99.90
2023-12-23T21:09:08.970Z,99.90
2023-12-23T21:11:36.303Z,99.90
2023-12-23T21:14:03.515Z,99.90
2023-12-23T21:16:30.763Z,99.90
2023-12-23T21:18:57.955Z,99.90
2023-12-23T21:21:25.158Z,99.90
2023-12-23T21:23:52.542Z,99.90
2023-12-23T21:26:23.539Z,99.90
2023-12-23T21:28:51.086Z,99.90
2023-12-23T21:31:18.340Z,99.90
2023-12-23T21:33:47.131Z,99.90
2023-12-23T21:36:15.635Z,99.90
2023-12-23T21:38:43.136Z,99.90
2023-12-23T21:41:10.533Z,99.90
2023-12-23T21:43:37.634Z,99.90
2023-12-23T21:46:04.988Z,99.90
2023-12-23T21:48:32.211Z,99.90
2023-12-23T21:51:00.020Z,99.90
2023-12-23T21:53:27.191Z,99.90
2023-12-23T21:55:56.590Z,99.90
2023-12-23T21:58:23.709Z,99.90
2023-12-23T22:00:50.928Z,99.90
2023-12-23T22:03:18.254Z,99.90
2023-12-23T22:05:46.147Z,99.90
2023-12-23T22:08:13.976Z,99.90
2023-12-23T22:10:41.280Z,99.90
2023-12-23T22:13:08.457Z,99.90
2023-12-23T22:15:35.616Z,99.90
2023-12-23T22:18:02.816Z,99.90
2023-12-23T22:20:30.077Z,99.90
2023-12-23T22:22:57.441Z,99.90
2023-12-23T22:25:25.865Z,99.90
2023-12-23T22:27:53.219Z,99.90
2023-12-23T22:30:20.547Z,99.90
2023-12-23T22:32:48.103Z,99.90
2023-12-23T22:35:15.679Z,99.90
2023-12-23T22:37:42.916Z,99.90
2023-12-23T22:40:10.566Z,99.90
2023-12-23T22:42:37.799Z,99.90
2023-12-23T22:45:05.257Z,99.90
2023-12-23T22:47:32.485Z,99.90
2023-12-23T22:49:59.768Z,99.90
2023-12-23T22:52:27.007Z,99.90
2023-12-23T22:54:54.213Z,99.90
2023-12-23T22:57:21.427Z,99.90
2023-12-23T22:59:50.692Z,99.90
2023-12-23T23:02:19.648Z,99.90
2023-12-23T23:04:46.878Z,99.90
2023-12-23T23:07:14.171Z,99.90
2023-12-23T23:09:41.383Z,99.90
2023-12-23T23:12:08.611Z,99.90
2023-12-23T23:14:41.243Z,99.90
2023-12-23T23:17:09.483Z,99.90
2023-12-23T23:19:36.864Z,99.90
2023-12-23T23:22:04.308Z,99.90
2023-12-23T23:24:31.570Z,99.90
2023-12-23T23:26:58.785Z,99.90
2023-12-23T23:29:26.014Z,99.90
2023-12-23T23:31:53.470Z,99.90
2023-12-23T23:34:20.932Z,99.90
2023-12-23T23:36:48.195Z,99.90
2023-12-23T23:39:15.385Z,99.90
2023-12-23T23:41:43.324Z,99.90
2023-12-23T23:44:10.587Z,99.90
2023-12-23T23:46:37.724Z,99.90
2023-12-23T23:49:04.892Z,99.90
2023-12-23T23:51:32.128Z,99.90
2023-12-23T23:54:00.775Z,99.90
2023-12-23T23:56:29.099Z,99.90
2023-12-23T23:58:56.276Z,99.90
